Time;durP1;ratioP1;P1;durP2;ratioP2;P2;SDS_P1;SDS_P2;PMS_P1;PMS_P2;Temp;Humidity;BMP_temperature;BMP_pressure;BME280_temperature;BME280_humidity;BME280_pressure;Samples;Min_cycle;Max_cycle;Signal;HPM_P1;HPM_P2
2022/08/22 00:01:47;;;;;;;5.38;0.90;;;17.30;99.90;;;;;;4993489;28;20026;-90
2022/08/22 00:04:31;;;;;;;10.05;1.67;;;17.30;99.90;;;;;;4992981;28;20026;-89
2022/08/22 00:07:24;;;;;;;6.40;1.50;;;17.40;99.90;;;;;;5009159;28;20041;-91
2022/08/22 00:09:56;;;;;;;5.07;1.30;;;17.40;99.90;;;;;;4989607;28;20037;-89
2022/08/22 00:12:28;;;;;;;5.72;1.13;;;17.30;99.90;;;;;;4993580;28;20524;-89
2022/08/22 00:15:02;;;;;;;5.30;1.02;;;17.30;99.90;;;;;;4999020;28;20116;-90
2022/08/22 00:18:02;;;;;;;6.97;1.30;;;17.30;99.90;;;;;;5009378;28;20563;-89
2022/08/22 00:20:38;;;;;;;7.68;1.42;;;17.20;99.90;;;;;;4991951;28;20449;-90
2022/08/22 00:23:30;;;;;;;7.18;1.35;;;17.20;99.90;;;;;;5006696;28;20050;-89
2022/08/22 00:26:07;;;;;;;13.07;1.63;;;17.20;99.90;;;;;;5010416;28;20025;-89
2022/08/22 00:28:55;;;;;;;5.18;0.95;;;17.20;99.90;;;;;;4993896;28;20029;-90
2022/08/22 00:31:20;;;;;;;7.05;1.48;;;17.20;99.90;;;;;;4995557;28;20026;-90
2022/08/22 00:34:14;;;;;;;7.43;1.15;;;17.20;99.90;;;;;;4989639;28;20113;-89
2022/08/22 00:37:01;;;;;;;4.80;1.00;;;17.10;99.90;;;;;;4993926;28;20030;-89
2022/08/22 00:39:45;;;;;;;8.40;1.23;;;17.10;99.90;;;;;;4993580;28;20124;-90
2022/08/22 00:43:06;;;;;;;5.93;1.02;;;17.20;99.90;;;;;;4991973;28;20025;-90
2022/08/22 00:46:06;;;;;;;6.40;1.10;;;17.10;99.90;;;;;;4992058;28;20493;-90
2022/08/22 00:48:43;;;;;;;7.25;0.90;;;17.10;99.90;;;;;;4986993;28;20026;-89
2022/08/22 00:51:28;;;;;;;7.05;1.27;;;17.20;99.90;;;;;;4997228;28;20030;-89
2022/08/22 00:54:27;;;;;;;8.10;1.20;;;17.10;99.90;;;;;;5008430;28;20483;-90
2022/08/22 00:57:02;;;;;;;7.53;0.90;;;17.20;99.90;;;;;;4993306;28;20102;-90
2022/08/22 00:59:36;;;;;;;7.40;1.05;;;17.10;99.90;;;;;;5005721;28;20113;-91
2022/08/22 01:02:09;;;;;;;7.85;1.40;;;17.20;99.90;;;;;;4992151;28;20041;-90
2022/08/22 01:04:46;;;;;;;5.28;1.00;;;17.30;99.90;;;;;;5008730;28;20025;-90
2022/08/22 01:07:29;;;;;;;5.13;1.27;;;17.20;99.90;;;;;;5007705;28;20018;-90
2022/08/22 01:10:13;;;;;;;9.82;1.10;;;17.20;99.90;;;;;;5021800;28;20030;-91
2022/08/22 01:13:14;;;;;;;5.45;1.10;;;17.20;99.90;;;;;;5008864;28;20092;-91
2022/08/22 01:15:41;;;;;;;8.52;1.50;;;17.30;99.90;;;;;;4983229;28;20046;-90
2022/08/22 01:18:21;;;;;;;5.22;1.50;;;17.20;99.90;;;;;;5009306;28;20554;-90
2022/08/22 01:21:28;;;;;;;5.72;1.10;;;17.30;99.90;;;;;;5021953;28;20042;-91
2022/08/22 01:24:18;;;;;;;9.40;1.17;;;17.20;99.90;;;;;;5008756;28;20057;-91
2022/08/22 01:27:17;;;;;;;6.15;1.52;;;17.20;99.90;;;;;;5011295;28;20032;-90
2022/08/22 01:30:15;;;;;;;6.30;1.52;;;17.20;99.90;;;;;;5010572;28;20076;-90
2022/08/22 01:32:59;;;;;;;9.35;1.20;;;17.20;99.90;;;;;;5010931;28;20089;-91
2022/08/22 01:35:50;;;;;;;4.95;1.00;;;17.20;99.90;;;;;;5021902;28;20029;-90
2022/08/22 01:38:51;;;;;;;7.65;1.10;;;17.20;99.90;;;;;;5008979;28;20021;-90
2022/08/22 01:41:44;;;;;;;5.80;1.20;;;17.20;99.90;;;;;;5023578;28;20061;-90
2022/08/22 01:44:37;;;;;;;7.30;1.83;;;17.20;99.90;;;;;;5021906;28;20422;-90
2022/08/22 01:47:11;;;;;;;5.95;1.20;;;17.20;99.90;;;;;;5007375;28;20021;-90
2022/08/22 01:49:50;;;;;;;6.45;1.58;;;17.20;99.90;;;;;;5008455;28;20073;-90
2022/08/22 01:52:47;;;;;;;6.18;1.58;;;17.20;99.90;;;;;;5011255;28;20045;-89
2022/08/22 01:55:40;;;;;;;5.95;1.58;;;17.20;99.90;;;;;;5007775;28;20141;-90
2022/08/22 01:58:19;;;;;;;6.38;1.20;;;17.20;99.90;;;;;;5023727;28;20030;-90
2022/08/22 02:01:34;;;;;;;5.82;1.52;;;17.20;99.90;;;;;;5016705;28;20092;-90
2022/08/22 02:04:03;;;;;;;9.02;1.75;;;17.20;99.90;;;;;;5025715;28;20053;-90
2022/08/22 02:06:58;;;;;;;5.85;1.70;;;17.20;99.90;;;;;;5013114;28;20021;-92
2022/08/22 02:09:51;;;;;;;7.85;1.10;;;17.20;99.90;;;;;;5020289;28;20022;-90
2022/08/22 02:12:41;;;;;;;5.65;1.65;;;17.20;99.90;;;;;;5012148;28;20053;-90
2022/08/22 02:15:18;;;;;;;7.63;1.73;;;17.20;99.90;;;;;;5003925;28;20030;-90
2022/08/22 02:18:18;;;;;;;7.03;1.40;;;17.20;99.90;;;;;;5028689;28;20029;-90
2022/08/22 02:20:46;;;;;;;5.82;1.50;;;17.10;99.90;;;;;;5021895;28;20041;-90
2022/08/22 02:23:35;;;;;;;6.20;1.55;;;17.10;99.90;;;;;;5004390;28;20029;-89
2022/08/22 02:26:01;;;;;;;7.35;1.60;;;17.10;99.90;;;;;;5009013;28;20029;-89
2022/08/22 02:29:20;;;;;;;8.40;1.45;;;17.10;99.90;;;;;;5008957;28;20029;-90
2022/08/22 02:31:55;;;;;;;6.53;2.33;;;17.10;99.90;;;;;;4925582;29;20031;-89
2022/08/22 02:34:41;;;;;;;6.97;1.92;;;17.10;99.90;;;;;;4997139;28;20055;-89
2022/08/22 02:37:28;;;;;;;11.05;2.30;;;17.10;99.90;;;;;;5009963;28;20518;-89
2022/08/22 02:40:16;;;;;;;8.38;2.25;;;17.10;99.90;;;;;;5023070;28;20033;-88
2022/08/22 02:43:01;;;;;;;7.07;2.10;;;17.10;99.90;;;;;;5005966;28;20029;-88
2022/08/22 02:45:35;;;;;;;8.40;2.45;;;17.10;99.90;;;;;;5028683;28;20385;-89
2022/08/22 02:48:11;;;;;;;7.55;2.05;;;17.10;99.90;;;;;;5005467;28;20064;-88
2022/08/22 02:50:53;;;;;;;9.60;2.00;;;17.10;99.90;;;;;;5025069;28;20029;-88
2022/08/22 02:53:38;;;;;;;7.03;2.60;;;17.00;99.90;;;;;;5010198;28;20104;-88
2022/08/22 02:56:13;;;;;;;8.82;2.10;;;17.00;99.90;;;;;;5022248;28;20022;-88
2022/08/22 02:59:13;;;;;;;7.53;1.58;;;17.10;99.90;;;;;;5027769;28;20491;-88
2022/08/22 03:01:43;;;;;;;9.10;2.15;;;17.00;99.90;;;;;;5008166;28;20030;-88
2022/08/22 03:04:33;;;;;;;12.30;2.88;;;17.00;99.90;;;;;;4993382;28;20034;-88
2022/08/22 03:07:02;;;;;;;6.18;1.77;;;17.00;99.90;;;;;;5008494;28;20034;-88
2022/08/22 03:09:40;;;;;;;9.38;1.80;;;16.90;99.90;;;;;;5004468;28;20371;-88
2022/08/22 03:12:26;;;;;;;7.47;2.33;;;16.90;99.90;;;;;;4996771;28;20437;-89
2022/08/22 03:15:05;;;;;;;5.55;2.00;;;16.90;99.90;;;;;;5009515;28;20096;-88
2022/08/22 03:18:00;;;;;;;9.20;1.92;;;16.80;99.90;;;;;;4998878;28;20030;-88
2022/08/22 03:20:44;;;;;;;9.75;1.73;;;16.80;99.90;;;;;;4967950;28;20034;-89
2022/08/22 03:23:39;;;;;;;7.35;1.85;;;16.80;99.90;;;;;;5012765;28;20026;-89
2022/08/22 03:26:26;;;;;;;9.25;2.42;;;16.80;99.90;;;;;;4958316;28;20034;-88
2022/08/22 03:28:59;;;;;;;8.95;1.92;;;16.70;99.90;;;;;;4991101;28;20026;-88
2022/08/22 03:31:27;;;;;;;11.45;2.38;;;16.70;99.90;;;;;;4997786;28;20033;-88
2022/08/22 03:34:17;;;;;;;7.95;2.65;;;16.70;99.90;;;;;;4996751;28;20018;-89
2022/08/22 03:37:12;;;;;;;12.55;2.13;;;16.70;99.90;;;;;;4996448;28;20026;-88
2022/08/22 03:39:47;;;;;;;6.95;2.13;;;16.70;99.90;;;;;;4989450;28;20085;-89
2022/08/22 03:42:43;;;;;;;8.05;2.28;;;16.60;99.90;;;;;;4993809;28;20028;-88
2022/08/22 03:45:21;;;;;;;4.03;2.08;;;16.70;99.90;;;;;;4991303;28;20022;-88
2022/08/22 03:47:46;;;;;;;8.82;2.70;;;16.60;99.90;;;;;;4995708;28;20037;-89
2022/08/22 03:50:57;;;;;;;8.48;2.55;;;16.60;99.90;;;;;;5013965;28;20026;-89
2022/08/22 03:53:33;;;;;;;10.07;3.00;;;16.60;99.90;;;;;;5002930;28;20029;-89
2022/08/22 03:56:37;;;;;;;10.43;3.40;;;16.60;99.90;;;;;;4997220;28;20026;-89
2022/08/22 03:59:27;;;;;;;7.95;2.97;;;16.60;99.90;;;;;;4995920;28;20439;-89
2022/08/22 04:02:04;;;;;;;7.65;2.58;;;16.60;99.90;;;;;;4996898;28;20044;-88
2022/08/22 04:04:37;;;;;;;8.32;2.50;;;16.60;99.90;;;;;;5031442;28;20105;-89
2022/08/22 04:07:16;;;;;;;9.57;3.40;;;16.60;99.90;;;;;;5032091;28;20025;-89
2022/08/22 04:09:50;;;;;;;8.88;2.80;;;16.60;99.90;;;;;;5015025;28;20112;-88
2022/08/22 04:12:47;;;;;;;9.65;2.70;;;16.70;99.90;;;;;;5031142;28;20029;-89
2022/08/22 04:15:18;;;;;;;9.40;3.15;;;16.60;99.90;;;;;;5014225;28;20025;-88
2022/08/22 04:18:21;;;;;;;8.80;2.78;;;16.50;99.90;;;;;;5010098;28;20116;-89
2022/08/22 04:21:05;;;;;;;9.05;2.75;;;16.50;99.90;;;;;;5013820;28;20409;-89
2022/08/22 04:23:30;;;;;;;9.52;2.50;;;16.40;99.90;;;;;;5012477;28;20029;-89
2022/08/22 04:26:22;;;;;;;9.27;3.22;;;16.30;99.90;;;;;;5016274;28;20402;-88
2022/08/22 04:28:55;;;;;;;10.45;3.63;;;16.30;99.90;;;;;;5016359;28;20116;-88
2022/08/22 04:31:31;;;;;;;12.07;4.20;;;16.30;99.90;;;;;;5015812;28;20037;-88
2022/08/22 04:34:05;;;;;;;14.35;3.75;;;16.30;99.90;;;;;;5013181;28;20091;-89
2022/08/22 04:36:42;;;;;;;13.00;4.22;;;16.30;99.90;;;;;;5013009;28;20492;-89
2022/08/22 04:39:30;;;;;;;12.88;4.07;;;16.30;99.90;;;;;;5010942;28;20068;-88
2022/08/22 04:42:11;;;;;;;8.32;3.65;;;16.30;99.90;;;;;;5030992;28;20064;-89
2022/08/22 04:44:40;;;;;;;9.10;3.50;;;16.30;99.90;;;;;;5013836;28;20528;-89
2022/08/22 04:47:28;;;;;;;7.30;3.05;;;16.30;99.90;;;;;;5032864;28;20041;-88
2022/08/22 04:50:20;;;;;;;10.25;3.25;;;16.30;99.90;;;;;;5011708;28;20025;-88
2022/08/22 04:53:05;;;;;;;6.60;3.80;;;16.30;99.90;;;;;;5012589;28;20029;-89
2022/08/22 04:56:09;;;;;;;12.50;3.95;;;16.30;99.90;;;;;;4999453;28;20334;-88
2022/08/22 04:58:57;;;;;;;13.13;3.25;;;16.30;99.90;;;;;;5028931;28;20028;-89
2022/08/22 05:01:38;;;;;;;12.05;3.85;;;16.30;99.90;;;;;;5008142;28;20021;-88
2022/08/22 05:04:15;;;;;;;10.00;4.10;;;16.40;99.90;;;;;;5014694;28;20103;-89
2022/08/22 05:06:46;;;;;;;9.45;3.58;;;16.40;99.90;;;;;;5016906;28;20053;-89
2022/08/22 05:09:17;;;;;;;10.50;3.28;;;16.30;99.90;;;;;;5016781;28;20045;-88
2022/08/22 05:11:46;;;;;;;8.43;3.20;;;16.30;99.90;;;;;;5015295;28;20053;-89
2022/08/22 05:14:37;;;;;;;11.90;3.65;;;16.40;99.90;;;;;;5013605;28;20072;-88
2022/08/22 05:17:07;;;;;;;11.15;4.20;;;16.40;99.90;;;;;;5003251;28;20037;-88
2022/08/22 05:19:45;;;;;;;10.95;3.72;;;16.40;99.90;;;;;;5014963;28;20092;-89
2022/08/22 05:22:20;;;;;;;11.32;3.97;;;16.40;99.90;;;;;;5017473;28;20104;-90
2022/08/22 05:24:50;;;;;;;12.05;4.00;;;16.50;99.90;;;;;;5017182;28;20044;-89
2022/08/22 05:27:21;;;;;;;11.35;4.03;;;16.50;99.90;;;;;;5014547;28;20129;-89
2022/08/22 05:29:50;;;;;;;10.98;4.03;;;16.50;99.90;;;;;;5013109;28;20022;-89
2022/08/22 05:32:27;;;;;;;10.57;3.90;;;16.50;99.90;;;;;;5028428;28;20048;-89
2022/08/22 05:34:58;;;;;;;9.20;3.67;;;16.60;99.90;;;;;;5014852;28;20186;-89
2022/08/22 05:37:31;;;;;;;10.25;3.80;;;16.60;99.90;;;;;;5014320;28;20025;-89
2022/08/22 05:39:59;;;;;;;15.73;4.65;;;16.70;99.90;;;;;;5015349;28;20042;-88
2022/08/22 05:42:32;;;;;;;7.35;3.65;;;16.70;99.90;;;;;;5030748;28;20018;-89
2022/08/22 05:45:01;;;;;;;7.80;3.25;;;16.80;99.90;;;;;;5015983;28;20428;-90
2022/08/22 05:47:35;;;;;;;8.75;3.20;;;16.80;99.90;;;;;;5011605;28;20029;-90
2022/08/22 05:50:11;;;;;;;8.85;3.33;;;16.90;99.90;;;;;;5014102;28;20032;-90
2022/08/22 05:52:40;;;;;;;11.30;3.90;;;17.00;99.90;;;;;;5029802;28;20029;-89
2022/08/22 05:55:46;;;;;;;5.80;3.00;;;17.00;99.90;;;;;;5011144;28;20044;-90
2022/08/22 05:58:26;;;;;;;7.45;3.10;;;17.10;99.90;;;;;;5026525;28;20025;-91
2022/08/22 06:01:07;;;;;;;7.43;2.58;;;17.20;99.90;;;;;;5015996;28;20034;-91
2022/08/22 06:03:39;;;;;;;10.52;3.45;;;17.20;99.90;;;;;;5011107;28;20115;-90
2022/08/22 06:06:13;;;;;;;9.75;3.47;;;17.20;99.90;;;;;;5016291;28;20087;-89
2022/08/22 06:08:43;;;;;;;9.05;3.95;;;17.30;99.90;;;;;;5015890;28;20033;-89
2022/08/22 06:11:19;;;;;;;8.10;3.70;;;17.30;99.90;;;;;;5016326;28;20033;-89
2022/08/22 06:14:16;;;;;;;12.27;4.25;;;17.40;99.90;;;;;;5028003;28;20022;-88
2022/08/22 06:16:50;;;;;;;10.05;4.10;;;17.50;99.90;;;;;;5016374;28;20494;-89
2022/08/22 06:19:18;;;;;;;9.55;4.55;;;17.60;99.90;;;;;;5017972;28;20041;-89
2022/08/22 06:21:47;;;;;;;12.48;4.50;;;17.60;99.90;;;;;;5017956;28;20390;-89
2022/08/22 06:24:20;;;;;;;11.55;4.75;;;17.70;99.90;;;;;;5036661;28;20048;-89
2022/08/22 06:26:49;;;;;;;15.88;5.25;;;17.80;99.90;;;;;;5014713;28;20395;-89
2022/08/22 06:29:30;;;;;;;11.27;5.25;;;17.90;99.90;;;;;;5015910;28;20493;-89
2022/08/22 06:31:56;;;;;;;13.35;5.60;;;18.00;99.90;;;;;;5017639;28;20405;-89
2022/08/22 06:34:27;;;;;;;18.55;5.05;;;18.10;99.90;;;;;;5014045;28;20026;-89
2022/08/22 06:36:56;;;;;;;15.80;5.70;;;18.20;99.90;;;;;;5014914;28;20030;-88
2022/08/22 06:39:35;;;;;;;9.68;5.05;;;18.30;99.90;;;;;;5016730;28;20033;-88
2022/08/22 06:42:24;;;;;;;10.68;5.43;;;18.40;99.90;;;;;;5017525;28;20104;-88
2022/08/22 06:44:57;;;;;;;12.38;5.07;;;18.50;99.90;;;;;;5016181;28;20505;-89
2022/08/22 06:47:31;;;;;;;12.20;5.78;;;18.60;99.90;;;;;;5023673;28;20029;-90
2022/08/22 06:50:19;;;;;;;14.05;5.10;;;18.70;99.90;;;;;;5017053;28;20552;-90
2022/08/22 06:53:00;;;;;;;12.02;5.53;;;18.80;99.90;;;;;;5033513;28;20029;-91
2022/08/22 06:55:27;;;;;;;9.68;5.22;;;19.00;99.90;;;;;;5016778;28;20056;-90
2022/08/22 06:58:06;;;;;;;12.48;5.55;;;18.90;99.90;;;;;;5016441;28;20029;-90
2022/08/22 07:00:33;;;;;;;16.45;6.18;;;19.00;99.90;;;;;;5017621;28;20030;-90
2022/08/22 07:03:05;;;;;;;11.15;5.68;;;19.10;99.90;;;;;;5021065;28;20038;-90
2022/08/22 07:05:38;;;;;;;10.38;5.47;;;19.10;99.90;;;;;;4997221;28;20117;-90
2022/08/22 07:08:07;;;;;;;;;;;19.20;99.90;;;;;;5014136;28;20437;-90
2022/08/22 07:10:33;;;;;;;10.25;4.95;;;19.20;99.90;;;;;;4997148;28;19935;-91
2022/08/22 07:12:59;;;;;;;12.38;5.72;;;19.30;99.90;;;;;;5014909;28;20026;-91
2022/08/22 07:15:33;;;;;;;12.27;6.00;;;19.40;99.90;;;;;;4995890;28;20037;-91
2022/08/22 07:18:13;;;;;;;11.02;4.97;;;19.40;99.90;;;;;;5013325;28;20026;-90
2022/08/22 07:20:44;;;;;;;12.30;5.05;;;19.50;99.90;;;;;;5014192;28;20034;-90
2022/08/22 07:23:39;;;;;;;10.13;5.13;;;19.60;99.90;;;;;;4993257;28;20023;-91
2022/08/22 07:26:32;;;;;;;10.98;5.60;;;19.70;99.90;;;;;;4995654;28;20402;-90
2022/08/22 07:29:07;;;;;;;12.98;5.43;;;19.80;99.90;;;;;;5009369;28;20100;-90
2022/08/22 07:31:45;;;;;;;9.77;6.03;;;19.90;99.90;;;;;;5008799;28;20045;-89
2022/08/22 07:34:40;;;;;;;12.05;5.90;;;19.90;99.90;;;;;;4997482;28;20389;-90
2022/08/22 07:37:15;;;;;;;13.25;5.40;;;20.00;99.90;;;;;;5010248;28;20030;-89
2022/08/22 07:40:09;;;;;;;14.98;5.80;;;20.00;99.90;;;;;;4995053;28;20034;-90
2022/08/22 07:43:14;;;;;;;11.75;5.38;;;20.00;99.90;;;;;;5013803;28;20034;-89
2022/08/22 07:45:48;;;;;;;10.65;5.30;;;20.10;99.90;;;;;;4998773;28;20033;-89
2022/08/22 07:48:43;;;;;;;13.80;6.20;;;20.20;99.90;;;;;;4997183;28;20390;-89
2022/08/22 07:51:13;;;;;;;10.80;5.53;;;20.30;99.90;;;;;;5014916;28;20034;-89
2022/08/22 07:53:39;;;;;;;14.57;5.38;;;20.30;99.90;;;;;;4996746;28;20022;-89
2022/08/22 07:56:11;;;;;;;14.00;5.60;;;20.40;99.90;;;;;;5007091;28;20026;-89
2022/08/22 07:58:38;;;;;;;;;;;20.50;99.90;;;;;;5007164;28;20032;-89
2022/08/22 08:01:08;;;;;;;10.88;5.72;;;20.60;99.90;;;;;;5007084;28;19918;-90
2022/08/22 08:03:35;;;;;;;11.63;4.70;;;20.60;99.90;;;;;;5017299;28;20124;-91
2022/08/22 08:06:01;;;;;;;10.93;5.43;;;20.60;99.90;;;;;;5032030;28;20101;-90
2022/08/22 08:08:39;;;;;;;13.73;5.68;;;20.60;99.90;;;;;;5015812;28;20084;-90
2022/08/22 08:11:08;;;;;;;10.27;5.30;;;20.60;99.90;;;;;;5023041;28;20045;-90
2022/08/22 08:13:37;;;;;;;14.35;5.90;;;20.60;99.90;;;;;;5016731;28;20025;-91
2022/08/22 08:16:08;;;;;;;12.00;5.30;;;20.60;99.90;;;;;;5013049;28;20430;-91
2022/08/22 08:18:35;;;;;;;9.48;5.05;;;20.60;99.90;;;;;;5014905;28;20030;-90
2022/08/22 08:21:05;;;;;;;10.55;5.90;;;20.70;99.90;;;;;;5017025;28;20041;-89
2022/08/22 08:23:43;;;;;;;11.13;4.90;;;20.60;99.90;;;;;;5015555;28;20033;-90
2022/08/22 08:26:20;;;;;;;11.18;4.97;;;20.60;99.90;;;;;;5028115;28;20063;-90
2022/08/22 08:28:53;;;;;;;9.88;4.82;;;20.60;99.90;;;;;;5012271;28;20030;-90
2022/08/22 08:31:34;;;;;;;10.00;4.75;;;20.60;99.90;;;;;;5015186;28;20037;-90
2022/08/22 08:34:11;;;;;;;14.55;5.03;;;20.70;99.90;;;;;;5016229;28;20142;-91
2022/08/22 08:36:47;;;;;;;12.20;5.35;;;20.70;99.90;;;;;;5015877;28;20034;-89
2022/08/22 08:39:32;;;;;;;16.02;4.90;;;20.90;99.90;;;;;;5013228;28;20042;-89
2022/08/22 08:43:26;;;;;;;10.25;4.57;;;21.00;99.90;;;;;;5016995;28;20490;-90
2022/08/22 08:45:39;;;;;;;10.43;4.97;;;21.30;99.90;;;;;;5011434;28;20186;-90
2022/08/22 08:48:43;;;;;;;13.50;4.97;;;21.50;99.90;;;;;;5016001;28;20084;-90
2022/08/22 08:51:17;;;;;;;10.85;4.18;;;21.70;99.90;;;;;;5016929;28;20022;-90
2022/08/22 08:53:51;;;;;;;12.25;4.65;;;21.60;99.90;;;;;;5016537;28;20121;-89
2022/08/22 08:56:54;;;;;;;9.57;3.72;;;21.60;99.90;;;;;;5016239;28;20098;-91
2022/08/22 08:59:32;;;;;;;9.10;4.18;;;21.70;99.90;;;;;;5014523;28;20037;-91
2022/08/22 09:02:15;;;;;;;10.13;4.55;;;21.80;99.90;;;;;;5000818;28;20104;-90
2022/08/22 09:05:11;;;;;;;13.75;3.97;;;22.00;99.90;;;;;;5032304;28;20960;-92
2022/08/22 09:08:10;;;;;;;9.93;3.88;;;22.00;99.90;;;;;;5014708;28;20171;-90
2022/08/22 09:10:57;;;;;;;9.82;4.63;;;22.10;99.90;;;;;;5035900;28;20091;-90
2022/08/22 09:14:04;;;;;;;10.48;3.75;;;22.30;99.90;;;;;;5029519;28;20482;-90
2022/08/22 09:16:47;;;;;;;10.32;3.85;;;22.40;99.90;;;;;;5034903;28;20048;-90
2022/08/22 09:19:30;;;;;;;8.02;4.00;;;22.60;99.90;;;;;;5018532;28;20037;-90
2022/08/22 09:22:03;;;;;;;7.95;2.72;;;22.70;99.90;;;;;;5016826;28;20132;-90
2022/08/22 09:24:45;;;;;;;8.95;3.10;;;22.80;99.90;;;;;;5034715;28;20033;-91
2022/08/22 09:27:40;;;;;;;9.20;2.88;;;22.80;99.90;;;;;;5017432;28;20025;-89
2022/08/22 09:30:15;;;;;;;8.07;2.13;;;22.80;99.90;;;;;;5029011;28;20037;-92
2022/08/22 09:32:53;;;;;;;9.73;2.33;;;22.90;99.80;;;;;;5012925;28;21072;-90
2022/08/22 09:35:40;;;;;;;10.93;2.45;;;23.00;99.40;;;;;;5034101;28;20033;-89
2022/08/22 09:38:24;;;;;;;7.75;2.45;;;23.00;99.00;;;;;;5018718;28;20108;-91
2022/08/22 09:40:54;;;;;;;7.47;2.00;;;23.00;98.70;;;;;;5016767;28;20040;-90
2022/08/22 09:43:37;;;;;;;7.32;2.20;;;23.20;98.60;;;;;;5033644;28;20508;-89
2022/08/22 09:46:30;;;;;;;8.25;2.28;;;23.30;97.70;;;;;;5019373;28;20460;-91
2022/08/22 09:49:43;;;;;;;5.95;1.52;;;23.30;97.20;;;;;;5021846;28;20040;-91
2022/08/22 09:52:46;;;;;;;8.68;1.70;;;23.50;97.10;;;;;;5007477;28;20025;-89
2022/08/22 09:55:38;;;;;;;5.50;1.90;;;23.80;96.60;;;;;;5011976;28;20036;-88
2022/08/22 09:58:17;;;;;;;8.20;1.70;;;24.00;96.10;;;;;;5010429;28;20068;-89
2022/08/22 10:01:10;;;;;;;7.05;1.42;;;24.20;95.40;;;;;;5002691;28;20574;-90
2022/08/22 10:03:44;;;;;;;7.82;1.10;;;24.40;94.50;;;;;;5007422;28;20137;-91
2022/08/22 10:06:23;;;;;;;6.10;1.45;;;24.40;94.30;;;;;;5012291;28;20029;-91
2022/08/22 10:09:15;;;;;;;5.55;1.48;;;24.30;94.00;;;;;;5005802;28;20053;-89
2022/08/22 10:11:45;;;;;;;4.90;1.77;;;24.30;94.40;;;;;;4998262;28;20022;-90
2022/08/22 10:14:19;;;;;;;5.82;1.52;;;24.40;93.60;;;;;;5010111;28;20432;-90
2022/08/22 10:17:17;;;;;;;7.82;1.55;;;24.30;93.20;;;;;;5013485;28;20801;-91
2022/08/22 10:19:58;;;;;;;7.90;2.17;;;24.30;93.30;;;;;;5027179;28;20072;-90
2022/08/22 10:22:39;;;;;;;5.03;1.08;;;24.50;93.00;;;;;;5010500;28;20025;-89
2022/08/22 10:25:37;;;;;;;5.25;0.98;;;24.60;92.70;;;;;;5026191;28;20037;-91
2022/08/22 10:28:30;;;;;;;8.02;1.30;;;24.70;91.80;;;;;;5012306;28;20108;-89
2022/08/22 10:31:12;;;;;;;7.50;1.40;;;24.60;91.10;;;;;;5007828;28;20164;-88
2022/08/22 10:34:08;;;;;;;5.53;0.70;;;24.50;90.90;;;;;;5008709;28;20022;-89
2022/08/22 10:36:36;;;;;;;7.57;1.20;;;24.60;91.50;;;;;;5014311;28;20095;-91
2022/08/22 10:39:06;;;;;;;5.85;1.38;;;24.70;91.20;;;;;;5014093;28;20029;-88
2022/08/22 10:41:58;;;;;;;5.85;1.13;;;24.80;90.50;;;;;;5014301;28;20037;-89
2022/08/22 10:44:46;;;;;;;9.45;1.33;;;24.80;90.10;;;;;;5014147;28;20482;-89
2022/08/22 10:47:26;;;;;;;3.65;0.90;;;24.90;90.10;;;;;;5014683;28;20022;-90
2022/08/22 10:50:04;;;;;;;5.85;0.90;;;25.10;90.00;;;;;;5014271;28;20030;-90
2022/08/22 10:52:37;;;;;;;7.18;0.90;;;25.40;88.80;;;;;;5013020;28;20081;-86
2022/08/22 10:55:17;;;;;;;5.53;1.45;;;25.60;87.80;;;;;;5014369;28;20022;-91
2022/08/22 10:58:06;;;;;;;5.07;0.98;;;25.80;86.20;;;;;;5010778;28;20037;-90
2022/08/22 11:01:10;;;;;;;5.18;0.70;;;25.90;85.80;;;;;;5010004;28;20037;-92
2022/08/22 11:03:49;;;;;;;4.30;1.13;;;26.20;84.00;;;;;;5009384;28;20038;-91
2022/08/22 11:06:28;;;;;;;4.20;0.60;;;26.30;82.60;;;;;;5014509;28;20029;-92
2022/08/22 11:09:14;;;;;;;5.45;0.65;;;26.50;82.40;;;;;;5018929;28;20022;-90
2022/08/22 11:11:55;;;;;;;3.47;0.85;;;26.80;81.10;;;;;;5006282;28;20069;-90
2022/08/22 11:14:36;;;;;;;3.80;0.65;;;26.80;79.90;;;;;;5013343;28;20034;-92
2022/08/22 11:17:22;;;;;;;5.85;0.60;;;26.80;78.60;;;;;;5012910;28;20544;-90
2022/08/22 11:20:23;;;;;;;4.18;0.68;;;26.70;78.00;;;;;;5029217;28;20038;-91
2022/08/22 11:23:13;;;;;;;5.13;0.60;;;26.70;77.70;;;;;;5007838;28;20088;-91
2022/08/22 11:26:03;;;;;;;4.28;0.80;;;26.80;77.40;;;;;;5025839;28;20390;-91
2022/08/22 11:28:46;;;;;;;3.97;0.75;;;26.80;76.60;;;;;;5018015;28;20080;-93
2022/08/22 11:31:38;;;;;;;6.80;1.00;;;26.90;75.50;;;;;;5029638;28;20023;-92
2022/08/22 11:34:04;;;;;;;3.83;0.60;;;27.00;74.40;;;;;;5014955;28;20037;-89
2022/08/22 11:36:55;;;;;;;3.92;0.63;;;26.90;74.20;;;;;;5015817;28;20038;-90
2022/08/22 11:39:45;;;;;;;4.68;0.60;;;26.70;73.70;;;;;;5021795;28;20032;-90
2022/08/22 11:42:21;;;;;;;3.90;0.60;;;26.60;73.50;;;;;;5017179;28;20034;-89
2022/08/22 11:44:53;;;;;;;5.22;0.80;;;26.40;73.70;;;;;;5016641;28;20022;-91
2022/08/22 11:47:22;;;;;;;5.38;1.05;;;26.40;74.60;;;;;;5016750;28;20022;-90
2022/08/22 11:49:48;;;;;;;9.75;0.77;;;26.50;73.30;;;;;;5016740;28;20053;-89
2022/08/22 11:52:35;;;;;;;8.02;1.00;;;26.40;72.60;;;;;;5017486;28;20425;-89
2022/08/22 11:55:10;;;;;;;5.18;0.90;;;26.60;72.60;;;;;;5032783;28;20118;-91
2022/08/22 11:57:41;;;;;;;4.28;0.70;;;26.80;71.90;;;;;;5014923;28;20037;-90
2022/08/22 12:00:22;;;;;;;4.93;0.65;;;26.80;71.90;;;;;;5016676;28;20036;-90
2022/08/22 12:03:14;;;;;;;6.07;0.80;;;27.10;72.00;;;;;;4996575;28;20038;-91
2022/08/22 12:05:58;;;;;;;;;;;27.20;70.90;;;;;;5011232;28;20033;-88
2022/08/22 12:08:35;;;;;;;4.18;0.60;;;27.20;71.40;;;;;;5021873;28;20036;-88
2022/08/22 12:11:10;;;;;;;3.20;0.50;;;27.20;70.80;;;;;;5024341;28;20066;-89
2022/08/22 12:13:58;;;;;;;2.13;0.70;;;27.30;69.70;;;;;;5011940;28;20018;-88
2022/08/22 12:16:32;;;;;;;3.50;0.70;;;27.40;69.80;;;;;;5014535;28;20029;-85
2022/08/22 12:19:27;;;;;;;3.90;0.77;;;27.60;69.20;;;;;;5016948;28;20030;-88
2022/08/22 12:22:28;;;;;;;6.97;0.75;;;27.70;67.50;;;;;;5012563;28;20022;-89
2022/08/22 12:25:16;;;;;;;4.13;0.70;;;27.70;66.70;;;;;;5005065;28;20062;-89
2022/08/22 12:27:56;;;;;;;4.50;0.63;;;27.90;66.80;;;;;;5032908;28;20022;-88
2022/08/22 12:30:44;;;;;;;8.32;0.90;;;27.90;66.10;;;;;;5027248;28;20026;-89
2022/08/22 12:33:29;;;;;;;5.55;0.70;;;28.00;65.30;;;;;;5015150;28;20026;-89
2022/08/22 12:36:38;;;;;;;3.65;0.70;;;28.00;64.90;;;;;;5016199;28;20026;-88
2022/08/22 12:39:35;;;;;;;4.82;0.60;;;28.10;64.60;;;;;;5003897;28;20038;-89
2022/08/22 12:42:22;;;;;;;3.63;0.80;;;28.00;64.60;;;;;;5016809;28;20030;-88
2022/08/22 12:45:06;;;;;;;5.28;0.60;;;28.10;64.70;;;;;;5032726;28;20030;-89
2022/08/22 12:47:35;;;;;;;3.30;0.50;;;28.20;64.10;;;;;;5011765;28;20049;-88
2022/08/22 12:50:15;;;;;;;4.82;0.60;;;28.30;63.30;;;;;;5028645;28;20022;-89
2022/08/22 12:52:57;;;;;;;4.72;0.60;;;28.50;62.80;;;;;;5032587;28;20029;-89
2022/08/22 12:55:29;;;;;;;3.85;0.60;;;28.70;62.60;;;;;;5031832;28;20406;-89
2022/08/22 12:57:54;;;;;;;;;;;28.90;62.10;;;;;;5011448;28;20132;-89
2022/08/22 13:00:33;;;;;;;3.65;0.60;;;29.00;62.80;;;;;;5014441;28;19997;-89
2022/08/22 13:03:03;;;;;;;2.58;0.70;;;29.10;61.50;;;;;;5008921;28;20046;-88
2022/08/22 13:05:30;;;;;;;4.18;0.75;;;29.10;61.40;;;;;;5013203;28;20036;-89
2022/08/22 13:08:01;;;;;;;2.60;0.65;;;29.10;61.30;;;;;;4996378;28;20506;-89
2022/08/22 13:11:00;;;;;;;2.95;0.50;;;29.20;61.50;;;;;;4995041;28;20026;-89
2022/08/22 13:13:40;;;;;;;2.67;0.60;;;29.30;60.80;;;;;;4996730;28;20516;-89
2022/08/22 13:16:08;;;;;;;4.72;0.65;;;29.30;60.20;;;;;;5000599;28;20101;-89
2022/08/22 13:18:52;;;;;;;3.13;0.52;;;29.30;60.30;;;;;;4996613;28;20022;-89
2022/08/22 13:21:22;;;;;;;3.95;0.65;;;29.30;59.30;;;;;;4996853;28;20049;-89
2022/08/22 13:23:53;;;;;;;4.38;0.68;;;29.30;59.90;;;;;;4995924;28;20041;-88
2022/08/22 13:26:30;;;;;;;3.85;0.73;;;29.30;59.70;;;;;;4999096;28;20437;-89
2022/08/22 13:29:15;;;;;;;6.18;0.63;;;29.20;59.90;;;;;;4999964;28;20029;-89
2022/08/22 13:31:43;;;;;;;4.53;0.60;;;29.10;59.70;;;;;;4991387;28;20486;-88
2022/08/22 13:34:25;;;;;;;4.97;0.70;;;29.10;60.00;;;;;;4988451;28;20490;-89
2022/08/22 13:36:57;;;;;;;4.55;0.63;;;29.20;60.80;;;;;;4981528;28;20042;-89
2022/08/22 13:39:44;;;;;;;4.32;0.60;;;29.20;58.90;;;;;;5014677;28;20061;-88
2022/08/22 13:42:18;;;;;;;5.45;0.75;;;29.10;59.10;;;;;;4998993;28;20030;-89
2022/08/22 13:44:49;;;;;;;5.07;0.73;;;29.00;59.20;;;;;;4999886;28;20030;-87
2022/08/22 13:47:20;;;;;;;4.85;0.98;;;28.90;58.90;;;;;;4999751;28;20035;-88
2022/08/22 13:49:53;;;;;;;2.30;0.60;;;28.70;58.10;;;;;;4999491;28;20553;-88
2022/08/22 13:52:28;;;;;;;2.47;0.60;;;28.60;57.70;;;;;;4998931;28;20029;-88
2022/08/22 13:55:09;;;;;;;5.90;0.77;;;28.50;58.10;;;;;;4999840;28;20033;-88
2022/08/22 13:57:41;;;;;;;2.40;0.43;;;28.50;57.60;;;;;;4999177;28;20037;-88
2022/08/22 14:00:11;;;;;;;;;;;28.40;57.90;;;;;;5000227;28;20049;-90